sensor_id;sensor_type;location;lat;lon;timestamp;P1;durP1;ratioP1;P2;durP2;ratioP2
41255;SDS011;26989;45.524;10.938;2022-12-29T00:00:07;19.70;;;11.63;;
41255;SDS011;26989;45.524;10.938;2022-12-29T00:02:35;20.15;;;11.90;;
41255;SDS011;26989;45.524;10.938;2022-12-29T00:05:03;23.52;;;12.93;;
41255;SDS011;26989;45.524;10.938;2022-12-29T00:07:30;20.13;;;12.52;;
41255;SDS011;26989;45.524;10.938;2022-12-29T00:09:56;23.55;;;12.38;;
41255;SDS011;26989;45.524;10.938;2022-12-29T00:12:23;19.25;;;11.52;;
41255;SDS011;26989;45.524;10.938;2022-12-29T00:14:50;21.77;;;12.00;;
41255;SDS011;26989;45.524;10.938;2022-12-29T00:17:35;19.73;;;11.18;;
41255;SDS011;26989;45.524;10.938;2022-12-29T00:20:02;19.50;;;11.27;;
41255;SDS011;26989;45.524;10.938;2022-12-29T00:22:48;17.08;;;10.45;;
41255;SDS011;26989;45.524;10.938;2022-12-29T00:25:35;17.80;;;9.80;;
41255;SDS011;26989;45.524;10.938;2022-12-29T00:28:32;19.23;;;10.88;;
41255;SDS011;26989;45.524;10.938;2022-12-29T00:31:17;18.00;;;10.63;;
41255;SDS011;26989;45.524;10.938;2022-12-29T00:34:03;19.23;;;11.18;;
41255;SDS011;26989;45.524;10.938;2022-12-29T00:36:48;21.05;;;10.57;;
41255;SDS011;26989;45.524;10.938;2022-12-29T00:39:16;21.52;;;11.50;;
41255;SDS011;26989;45.524;10.938;2022-12-29T00:42:04;16.88;;;10.38;;
41255;SDS011;26989;45.524;10.938;2022-12-29T00:44:50;15.38;;;9.38;;
41255;SDS011;26989;45.524;10.938;2022-12-29T00:47:17;18.00;;;10.38;;
41255;SDS011;26989;45.524;10.938;2022-12-29T00:49:43;17.90;;;10.10;;
41255;SDS011;26989;45.524;10.938;2022-12-29T00:52:11;18.70;;;11.05;;
41255;SDS011;26989;45.524;10.938;2022-12-29T00:54:39;22.58;;;12.48;;
41255;SDS011;26989;45.524;10.938;2022-12-29T00:57:08;22.42;;;13.90;;
41255;SDS011;26989;45.524;10.938;2022-12-29T00:59:36;24.33;;;13.88;;
41255;SDS011;26989;45.524;10.938;2022-12-29T01:02:04;20.85;;;12.93;;
41255;SDS011;26989;45.524;10.938;2022-12-29T01:04:32;21.98;;;13.98;;
41255;SDS011;26989;45.524;10.938;2022-12-29T01:06:59;23.80;;;14.57;;
41255;SDS011;26989;45.524;10.938;2022-12-29T01:09:26;23.77;;;14.02;;
41255;SDS011;26989;45.524;10.938;2022-12-29T01:12:12;22.70;;;12.93;;
41255;SDS011;26989;45.524;10.938;2022-12-29T01:14:39;20.95;;;12.10;;
41255;SDS011;26989;45.524;10.938;2022-12-29T01:17:06;21.77;;;11.98;;
41255;SDS011;26989;45.524;10.938;2022-12-29T01:19:33;23.35;;;13.00;;
41255;SDS011;26989;45.524;10.938;2022-12-29T01:22:00;24.50;;;13.75;;
41255;SDS011;26989;45.524;10.938;2022-12-29T01:24:27;21.00;;;13.93;;
41255;SDS011;26989;45.524;10.938;2022-12-29T01:26:54;21.75;;;12.82;;
41255;SDS011;26989;45.524;10.938;2022-12-29T01:29:21;24.60;;;15.80;;
41255;SDS011;26989;45.524;10.938;2022-12-29T01:31:48;28.05;;;17.00;;
41255;SDS011;26989;45.524;10.938;2022-12-29T01:34:16;27.98;;;16.05;;
41255;SDS011;26989;45.524;10.938;2022-12-29T01:36:44;25.63;;;15.25;;
41255;SDS011;26989;45.524;10.938;2022-12-29T01:39:11;24.73;;;14.65;;
41255;SDS011;26989;45.524;10.938;2022-12-29T01:41:39;25.90;;;15.73;;
41255;SDS011;26989;45.524;10.938;2022-12-29T01:47:07;26.05;;;15.07;;
41255;SDS011;26989;45.524;10.938;2022-12-29T01:49:34;28.15;;;14.88;;
41255;SDS011;26989;45.524;10.938;2022-12-29T01:52:05;24.15;;;14.48;;
41255;SDS011;26989;45.524;10.938;2022-12-29T01:59:40;24.02;;;14.10;;
41255;SDS011;26989;45.524;10.938;2022-12-29T02:02:09;23.92;;;14.82;;
41255;SDS011;26989;45.524;10.938;2022-12-29T02:04:38;22.90;;;14.25;;
41255;SDS011;26989;45.524;10.938;2022-12-29T02:07:11;25.20;;;14.23;;
41255;SDS011;26989;45.524;10.938;2022-12-29T02:09:46;23.83;;;13.48;;
41255;SDS011;26989;45.524;10.938;2022-12-29T02:12:15;23.73;;;14.02;;
41255;SDS011;26989;45.524;10.938;2022-12-29T02:14:44;24.77;;;13.77;;
41255;SDS011;26989;45.524;10.938;2022-12-29T02:33:57;23.75;;;12.80;;
41255;SDS011;26989;45.524;10.938;2022-12-29T02:44:36;22.40;;;12.55;;
41255;SDS011;26989;45.524;10.938;2022-12-29T02:52:39;21.95;;;11.88;;
41255;SDS011;26989;45.524;10.938;2022-12-29T02:55:14;24.05;;;12.73;;
41255;SDS011;26989;45.524;10.938;2022-12-29T02:57:41;23.13;;;12.93;;
41255;SDS011;26989;45.524;10.938;2022-12-29T03:00:09;23.88;;;12.52;;
41255;SDS011;26989;45.524;10.938;2022-12-29T03:03:02;21.02;;;12.60;;
41255;SDS011;26989;45.524;10.938;2022-12-29T03:06:18;23.35;;;13.15;;
41255;SDS011;26989;45.524;10.938;2022-12-29T03:11:25;22.55;;;12.98;;
41255;SDS011;26989;45.524;10.938;2022-12-29T03:14:25;23.95;;;12.23;;
41255;SDS011;26989;45.524;10.938;2022-12-29T03:17:18;21.05;;;12.07;;
41255;SDS011;26989;45.524;10.938;2022-12-29T03:19:59;21.33;;;12.60;;
41255;SDS011;26989;45.524;10.938;2022-12-29T03:22:34;24.00;;;12.23;;
41255;SDS011;26989;45.524;10.938;2022-12-29T03:25:16;24.15;;;13.70;;
41255;SDS011;26989;45.524;10.938;2022-12-29T03:28:06;20.52;;;12.68;;
41255;SDS011;26989;45.524;10.938;2022-12-29T03:30:36;23.65;;;13.07;;
41255;SDS011;26989;45.524;10.938;2022-12-29T03:33:07;22.77;;;11.35;;
41255;SDS011;26989;45.524;10.938;2022-12-29T03:35:40;20.30;;;11.90;;
41255;SDS011;26989;45.524;10.938;2022-12-29T03:38:18;23.45;;;12.48;;
41255;SDS011;26989;45.524;10.938;2022-12-29T03:40:56;20.80;;;12.88;;
41255;SDS011;26989;45.524;10.938;2022-12-29T03:43:26;20.65;;;13.05;;
41255;SDS011;26989;45.524;10.938;2022-12-29T03:45:54;23.52;;;12.75;;
41255;SDS011;26989;45.524;10.938;2022-12-29T03:48:21;24.48;;;13.35;;
41255;SDS011;26989;45.524;10.938;2022-12-29T03:50:48;22.52;;;12.38;;
41255;SDS011;26989;45.524;10.938;2022-12-29T03:53:15;22.70;;;12.63;;
41255;SDS011;26989;45.524;10.938;2022-12-29T03:55:42;25.73;;;12.88;;
41255;SDS011;26989;45.524;10.938;2022-12-29T03:58:09;21.73;;;11.48;;
41255;SDS011;26989;45.524;10.938;2022-12-29T04:00:36;23.27;;;12.25;;
41255;SDS011;26989;45.524;10.938;2022-12-29T04:03:03;20.88;;;12.52;;
41255;SDS011;26989;45.524;10.938;2022-12-29T04:05:30;23.70;;;12.48;;
41255;SDS011;26989;45.524;10.938;2022-12-29T04:07:58;23.15;;;12.65;;
41255;SDS011;26989;45.524;10.938;2022-12-29T04:10:25;23.95;;;13.93;;
41255;SDS011;26989;45.524;10.938;2022-12-29T04:12:51;23.88;;;13.80;;
41255;SDS011;26989;45.524;10.938;2022-12-29T04:15:18;26.75;;;14.23;;
41255;SDS011;26989;45.524;10.938;2022-12-29T04:17:45;22.77;;;13.07;;
41255;SDS011;26989;45.524;10.938;2022-12-29T04:20:12;24.98;;;13.55;;
41255;SDS011;26989;45.524;10.938;2022-12-29T04:22:59;25.75;;;13.50;;
41255;SDS011;26989;45.524;10.938;2022-12-29T04:25:27;22.63;;;13.07;;
41255;SDS011;26989;45.524;10.938;2022-12-29T04:27:54;28.75;;;14.52;;
41255;SDS011;26989;45.524;10.938;2022-12-29T04:30:20;27.42;;;13.90;;
41255;SDS011;26989;45.524;10.938;2022-12-29T04:32:47;26.50;;;14.52;;
41255;SDS011;26989;45.524;10.938;2022-12-29T04:35:14;30.10;;;15.93;;
41255;SDS011;26989;45.524;10.938;2022-12-29T04:37:43;27.33;;;13.75;;
41255;SDS011;26989;45.524;10.938;2022-12-29T04:40:10;27.63;;;14.23;;
41255;SDS011;26989;45.524;10.938;2022-12-29T04:42:37;28.33;;;14.80;;
41255;SDS011;26989;45.524;10.938;2022-12-29T04:45:04;25.17;;;14.35;;
41255;SDS011;26989;45.524;10.938;2022-12-29T04:47:32;25.08;;;15.20;;
41255;SDS011;26989;45.524;10.938;2022-12-29T04:49:59;27.95;;;14.98;;
41255;SDS011;26989;45.524;10.938;2022-12-29T04:52:26;26.65;;;15.02;;
41255;SDS011;26989;45.524;10.938;2022-12-29T04:54:53;28.65;;;15.20;;
41255;SDS011;26989;45.524;10.938;2022-12-29T04:57:20;26.80;;;14.57;;
41255;SDS011;26989;45.524;10.938;2022-12-29T04:59:47;27.02;;;15.65;;
41255;SDS011;26989;45.524;10.938;2022-12-29T05:02:13;25.95;;;15.05;;
41255;SDS011;26989;45.524;10.938;2022-12-29T05:04:43;25.85;;;15.13;;
41255;SDS011;26989;45.524;10.938;2022-12-29T05:07:10;27.40;;;15.68;;
41255;SDS011;26989;45.524;10.938;2022-12-29T05:09:37;27.70;;;14.95;;
41255;SDS011;26989;45.524;10.938;2022-12-29T05:12:05;27.15;;;15.18;;
41255;SDS011;26989;45.524;10.938;2022-12-29T05:14:32;29.38;;;15.65;;
41255;SDS011;26989;45.524;10.938;2022-12-29T05:16:59;28.33;;;15.20;;
41255;SDS011;26989;45.524;10.938;2022-12-29T05:19:26;28.52;;;15.65;;
41255;SDS011;26989;45.524;10.938;2022-12-29T05:21:53;27.73;;;15.70;;
41255;SDS011;26989;45.524;10.938;2022-12-29T05:24:21;28.02;;;13.93;;
41255;SDS011;26989;45.524;10.938;2022-12-29T05:26:48;32.53;;;15.90;;
41255;SDS011;26989;45.524;10.938;2022-12-29T05:29:14;28.83;;;16.48;;
41255;SDS011;26989;45.524;10.938;2022-12-29T05:31:43;29.92;;;15.85;;
41255;SDS011;26989;45.524;10.938;2022-12-29T05:34:10;29.15;;;16.48;;
41255;SDS011;26989;45.524;10.938;2022-12-29T05:36:37;32.25;;;17.83;;
41255;SDS011;26989;45.524;10.938;2022-12-29T05:39:04;31.10;;;15.50;;
41255;SDS011;26989;45.524;10.938;2022-12-29T05:41:34;35.83;;;17.27;;
41255;SDS011;26989;45.524;10.938;2022-12-29T05:44:01;31.02;;;16.60;;
41255;SDS011;26989;45.524;10.938;2022-12-29T05:46:28;34.90;;;17.45;;
41255;SDS011;26989;45.524;10.938;2022-12-29T05:48:55;34.28;;;17.08;;
41255;SDS011;26989;45.524;10.938;2022-12-29T05:51:22;31.77;;;17.58;;
41255;SDS011;26989;45.524;10.938;2022-12-29T05:53:49;32.92;;;18.48;;
41255;SDS011;26989;45.524;10.938;2022-12-29T05:56:16;31.23;;;16.52;;
41255;SDS011;26989;45.524;10.938;2022-12-29T05:58:43;31.40;;;16.63;;
41255;SDS011;26989;45.524;10.938;2022-12-29T06:01:10;29.98;;;16.90;;
41255;SDS011;26989;45.524;10.938;2022-12-29T06:03:37;32.58;;;16.13;;
41255;SDS011;26989;45.524;10.938;2022-12-29T06:06:11;30.80;;;16.40;;
41255;SDS011;26989;45.524;10.938;2022-12-29T06:08:38;33.03;;;16.98;;
41255;SDS011;26989;45.524;10.938;2022-12-29T06:11:05;31.65;;;17.13;;
41255;SDS011;26989;45.524;10.938;2022-12-29T06:13:32;33.13;;;17.25;;
41255;SDS011;26989;45.524;10.938;2022-12-29T06:15:59;33.88;;;18.30;;
41255;SDS011;26989;45.524;10.938;2022-12-29T06:18:26;31.75;;;16.88;;
41255;SDS011;26989;45.524;10.938;2022-12-29T06:20:53;29.27;;;16.50;;
41255;SDS011;26989;45.524;10.938;2022-12-29T06:23:20;29.90;;;16.38;;
41255;SDS011;26989;45.524;10.938;2022-12-29T06:25:47;28.92;;;16.60;;
41255;SDS011;26989;45.524;10.938;2022-12-29T06:28:14;25.60;;;16.27;;
41255;SDS011;26989;45.524;10.938;2022-12-29T06:30:43;35.22;;;16.48;;
41255;SDS011;26989;45.524;10.938;2022-12-29T06:33:14;27.35;;;16.08;;
41255;SDS011;26989;45.524;10.938;2022-12-29T06:35:42;28.50;;;16.08;;
41255;SDS011;26989;45.524;10.938;2022-12-29T06:38:12;28.30;;;17.33;;
41255;SDS011;26989;45.524;10.938;2022-12-29T06:40:39;28.50;;;18.08;;
41255;SDS011;26989;45.524;10.938;2022-12-29T06:43:07;31.70;;;18.48;;
41255;SDS011;26989;45.524;10.938;2022-12-29T06:45:34;31.33;;;17.85;;
41255;SDS011;26989;45.524;10.938;2022-12-29T06:48:03;30.45;;;17.60;;
41255;SDS011;26989;45.524;10.938;2022-12-29T06:50:30;35.63;;;19.13;;
41255;SDS011;26989;45.524;10.938;2022-12-29T06:52:57;45.25;;;18.60;;
41255;SDS011;26989;45.524;10.938;2022-12-29T06:55:24;31.10;;;18.65;;
41255;SDS011;26989;45.524;10.938;2022-12-29T06:57:53;29.42;;;17.05;;
41255;SDS011;26989;45.524;10.938;2022-12-29T07:00:24;31.38;;;18.27;;
41255;SDS011;26989;45.524;10.938;2022-12-29T07:02:51;32.80;;;19.80;;
41255;SDS011;26989;45.524;10.938;2022-12-29T07:05:18;38.03;;;21.60;;
41255;SDS011;26989;45.524;10.938;2022-12-29T07:07:45;58.85;;;30.00;;
41255;SDS011;26989;45.524;10.938;2022-12-29T07:10:12;42.00;;;23.30;;
41255;SDS011;26989;45.524;10.938;2022-12-29T07:12:39;38.50;;;22.10;;
41255;SDS011;26989;45.524;10.938;2022-12-29T07:15:06;35.95;;;21.80;;
41255;SDS011;26989;45.524;10.938;2022-12-29T07:17:33;36.63;;;22.05;;
41255;SDS011;26989;45.524;10.938;2022-12-29T07:20:00;46.30;;;23.90;;
41255;SDS011;26989;45.524;10.938;2022-12-29T07:22:27;44.53;;;22.75;;
41255;SDS011;26989;45.524;10.938;2022-12-29T07:24:54;44.53;;;24.83;;
41255;SDS011;26989;45.524;10.938;2022-12-29T07:27:21;39.22;;;23.25;;
41255;SDS011;26989;45.524;10.938;2022-12-29T07:29:48;39.78;;;24.20;;
41255;SDS011;26989;45.524;10.938;2022-12-29T07:32:15;197.68;;;81.55;;
41255;SDS011;26989;45.524;10.938;2022-12-29T07:34:43;247.35;;;121.80;;
41255;SDS011;26989;45.524;10.938;2022-12-29T07:37:11;105.57;;;65.65;;
41255;SDS011;26989;45.524;10.938;2022-12-29T07:39:38;102.32;;;60.33;;
41255;SDS011;26989;45.524;10.938;2022-12-29T07:42:05;64.13;;;36.30;;
41255;SDS011;26989;45.524;10.938;2022-12-29T07:44:32;38.75;;;22.25;;
41255;SDS011;26989;45.524;10.938;2022-12-29T07:46:59;43.50;;;22.65;;
41255;SDS011;26989;45.524;10.938;2022-12-29T07:49:27;40.00;;;22.95;;
41255;SDS011;26989;45.524;10.938;2022-12-29T07:51:54;40.35;;;23.60;;
41255;SDS011;26989;45.524;10.938;2022-12-29T07:54:21;43.95;;;25.67;;
41255;SDS011;26989;45.524;10.938;2022-12-29T07:56:49;46.30;;;26.08;;
41255;SDS011;26989;45.524;10.938;2022-12-29T07:59:16;44.95;;;26.13;;
41255;SDS011;26989;45.524;10.938;2022-12-29T08:01:44;57.40;;;32.35;;
41255;SDS011;26989;45.524;10.938;2022-12-29T08:04:11;47.10;;;27.95;;
41255;SDS011;26989;45.524;10.938;2022-12-29T08:06:38;52.08;;;29.42;;
41255;SDS011;26989;45.524;10.938;2022-12-29T08:09:05;45.92;;;25.55;;
41255;SDS011;26989;45.524;10.938;2022-12-29T08:11:41;38.38;;;22.42;;
41255;SDS011;26989;45.524;10.938;2022-12-29T08:14:09;35.55;;;20.50;;
41255;SDS011;26989;45.524;10.938;2022-12-29T08:16:36;38.92;;;23.02;;
41255;SDS011;26989;45.524;10.938;2022-12-29T08:19:03;35.92;;;22.05;;
41255;SDS011;26989;45.524;10.938;2022-12-29T08:21:32;36.13;;;22.13;;
41255;SDS011;26989;45.524;10.938;2022-12-29T08:24:02;57.05;;;28.90;;
41255;SDS011;26989;45.524;10.938;2022-12-29T08:26:34;47.88;;;26.38;;
41255;SDS011;26989;45.524;10.938;2022-12-29T08:29:15;43.25;;;22.98;;
41255;SDS011;26989;45.524;10.938;2022-12-29T08:31:44;39.67;;;21.98;;
41255;SDS011;26989;45.524;10.938;2022-12-29T08:34:18;34.38;;;20.15;;
41255;SDS011;26989;45.524;10.938;2022-12-29T08:36:46;40.85;;;21.75;;
41255;SDS011;26989;45.524;10.938;2022-12-29T08:39:16;42.33;;;21.95;;
41255;SDS011;26989;45.524;10.938;2022-12-29T08:41:49;45.88;;;24.27;;
41255;SDS011;26989;45.524;10.938;2022-12-29T08:44:19;40.63;;;24.27;;
41255;SDS011;26989;45.524;10.938;2022-12-29T08:46:56;39.35;;;24.35;;
41255;SDS011;26989;45.524;10.938;2022-12-29T08:49:39;42.88;;;24.65;;
41255;SDS011;26989;45.524;10.938;2022-12-29T08:52:07;42.45;;;25.90;;
41255;SDS011;26989;45.524;10.938;2022-12-29T08:54:34;44.13;;;24.80;;
41255;SDS011;26989;45.524;10.938;2022-12-29T08:57:02;35.95;;;23.58;;
41255;SDS011;26989;45.524;10.938;2022-12-29T08:59:32;37.17;;;21.60;;
41255;SDS011;26989;45.524;10.938;2022-12-29T09:01:59;27.98;;;18.58;;
41255;SDS011;26989;45.524;10.938;2022-12-29T09:04:28;27.88;;;17.75;;
41255;SDS011;26989;45.524;10.938;2022-12-29T09:06:55;30.70;;;19.17;;
41255;SDS011;26989;45.524;10.938;2022-12-29T09:09:25;30.75;;;18.33;;
41255;SDS011;26989;45.524;10.938;2022-12-29T09:11:52;33.38;;;20.23;;
41255;SDS011;26989;45.524;10.938;2022-12-29T09:14:19;36.38;;;21.23;;
41255;SDS011;26989;45.524;10.938;2022-12-29T09:16:53;44.50;;;24.33;;
41255;SDS011;26989;45.524;10.938;2022-12-29T09:19:39;37.25;;;23.20;;
41255;SDS011;26989;45.524;10.938;2022-12-29T09:22:14;35.28;;;21.70;;
41255;SDS011;26989;45.524;10.938;2022-12-29T09:24:41;33.60;;;20.35;;
41255;SDS011;26989;45.524;10.938;2022-12-29T09:27:08;31.77;;;19.42;;
41255;SDS011;26989;45.524;10.938;2022-12-29T09:29:35;38.28;;;22.23;;
41255;SDS011;26989;45.524;10.938;2022-12-29T09:32:03;39.10;;;22.92;;
41255;SDS011;26989;45.524;10.938;2022-12-29T09:34:33;41.25;;;22.23;;
41255;SDS011;26989;45.524;10.938;2022-12-29T09:37:00;39.35;;;22.92;;
41255;SDS011;26989;45.524;10.938;2022-12-29T09:39:27;40.65;;;23.67;;
41255;SDS011;26989;45.524;10.938;2022-12-29T09:42:02;39.50;;;23.60;;
41255;SDS011;26989;45.524;10.938;2022-12-29T09:47:30;38.50;;;23.10;;
41255;SDS011;26989;45.524;10.938;2022-12-29T09:50:03;36.25;;;20.63;;
41255;SDS011;26989;45.524;10.938;2022-12-29T09:55:42;47.58;;;24.27;;
41255;SDS011;26989;45.524;10.938;2022-12-29T09:58:36;41.15;;;25.65;;
41255;SDS011;26989;45.524;10.938;2022-12-29T10:04:06;40.92;;;24.65;;
41255;SDS011;26989;45.524;10.938;2022-12-29T10:18:32;42.83;;;24.58;;
41255;SDS011;26989;45.524;10.938;2022-12-29T10:24:07;38.10;;;23.15;;
41255;SDS011;26989;45.524;10.938;2022-12-29T10:29:19;33.70;;;20.10;;
41255;SDS011;26989;45.524;10.938;2022-12-29T10:31:50;32.75;;;20.13;;
41255;SDS011;26989;45.524;10.938;2022-12-29T10:34:31;40.97;;;20.77;;
41255;SDS011;26989;45.524;10.938;2022-12-29T10:37:14;48.67;;;21.85;;
41255;SDS011;26989;45.524;10.938;2022-12-29T10:43:07;236.15;;;56.55;;
41255;SDS011;26989;45.524;10.938;2022-12-29T10:45:59;55.05;;;25.17;;
41255;SDS011;26989;45.524;10.938;2022-12-29T10:48:31;42.15;;;24.88;;
41255;SDS011;26989;45.524;10.938;2022-12-29T10:51:08;35.38;;;23.20;;
41255;SDS011;26989;45.524;10.938;2022-12-29T10:53:39;36.40;;;22.23;;
41255;SDS011;26989;45.524;10.938;2022-12-29T10:59:03;38.25;;;24.48;;
41255;SDS011;26989;45.524;10.938;2022-12-29T11:01:50;43.35;;;23.15;;
41255;SDS011;26989;45.524;10.938;2022-12-29T11:07:20;40.92;;;23.50;;
41255;SDS011;26989;45.524;10.938;2022-12-29T11:09:52;45.72;;;25.67;;
41255;SDS011;26989;45.524;10.938;2022-12-29T11:12:22;49.33;;;26.92;;
41255;SDS011;26989;45.524;10.938;2022-12-29T11:23:23;40.35;;;22.65;;
41255;SDS011;26989;45.524;10.938;2022-12-29T11:28:37;37.60;;;20.90;;
41255;SDS011;26989;45.524;10.938;2022-12-29T11:31:08;33.95;;;20.75;;
41255;SDS011;26989;45.524;10.938;2022-12-29T11:33:36;29.38;;;21.10;;
41255;SDS011;26989;45.524;10.938;2022-12-29T11:36:10;37.03;;;21.25;;
41255;SDS011;26989;45.524;10.938;2022-12-29T11:38:49;32.53;;;22.30;;
41255;SDS011;26989;45.524;10.938;2022-12-29T11:41:25;36.35;;;21.55;;
41255;SDS011;26989;45.524;10.938;2022-12-29T11:44:02;33.83;;;21.70;;
41255;SDS011;26989;45.524;10.938;2022-12-29T11:46:34;31.63;;;20.67;;
41255;SDS011;26989;45.524;10.938;2022-12-29T11:49:05;36.13;;;21.67;;
41255;SDS011;26989;45.524;10.938;2022-12-29T11:51:39;32.38;;;21.38;;
41255;SDS011;26989;45.524;10.938;2022-12-29T11:54:20;31.45;;;21.50;;
41255;SDS011;26989;45.524;10.938;2022-12-29T11:56:53;30.15;;;21.08;;
41255;SDS011;26989;45.524;10.938;2022-12-29T12:01:58;34.97;;;22.98;;
41255;SDS011;26989;45.524;10.938;2022-12-29T12:04:38;35.53;;;23.35;;
41255;SDS011;26989;45.524;10.938;2022-12-29T12:07:13;39.20;;;23.55;;
41255;SDS011;26989;45.524;10.938;2022-12-29T12:09:57;38.65;;;23.92;;
41255;SDS011;26989;45.524;10.938;2022-12-29T12:12:43;36.88;;;23.35;;
41255;SDS011;26989;45.524;10.938;2022-12-29T12:15:24;40.25;;;26.65;;
41255;SDS011;26989;45.524;10.938;2022-12-29T12:18:09;39.40;;;24.63;;
41255;SDS011;26989;45.524;10.938;2022-12-29T12:20:41;35.88;;;23.52;;
41255;SDS011;26989;45.524;10.938;2022-12-29T12:23:30;41.75;;;26.38;;
41255;SDS011;26989;45.524;10.938;2022-12-29T12:31:17;39.63;;;25.17;;
41255;SDS011;26989;45.524;10.938;2022-12-29T12:33:50;41.78;;;27.08;;
41255;SDS011;26989;45.524;10.938;2022-12-29T12:36:37;43.08;;;27.30;;
41255;SDS011;26989;45.524;10.938;2022-12-29T12:45:49;38.40;;;25.88;;
41255;SDS011;26989;45.524;10.938;2022-12-29T13:00:41;53.58;;;30.63;;
41255;SDS011;26989;45.524;10.938;2022-12-29T13:03:24;46.50;;;29.20;;
41255;SDS011;26989;45.524;10.938;2022-12-29T13:22:43;42.58;;;29.35;;
41255;SDS011;26989;45.524;10.938;2022-12-29T13:28:15;48.88;;;30.73;;
41255;SDS011;26989;45.524;10.938;2022-12-29T13:30:47;103.55;;;59.28;;
41255;SDS011;26989;45.524;10.938;2022-12-29T13:39:14;54.47;;;34.25;;
41255;SDS011;26989;45.524;10.938;2022-12-29T13:41:51;55.35;;;33.75;;
41255;SDS011;26989;45.524;10.938;2022-12-29T13:45:12;57.60;;;34.97;;
41255;SDS011;26989;45.524;10.938;2022-12-29T13:47:52;56.70;;;35.90;;
41255;SDS011;26989;45.524;10.938;2022-12-29T13:50:28;65.22;;;37.63;;
41255;SDS011;26989;45.524;10.938;2022-12-29T13:58:47;65.50;;;38.10;;
41255;SDS011;26989;45.524;10.938;2022-12-29T14:01:50;59.58;;;36.80;;
41255;SDS011;26989;45.524;10.938;2022-12-29T14:04:21;60.33;;;36.88;;
41255;SDS011;26989;45.524;10.938;2022-12-29T14:06:59;59.15;;;36.17;;
41255;SDS011;26989;45.524;10.938;2022-12-29T14:12:38;66.72;;;39.97;;
41255;SDS011;26989;45.524;10.938;2022-12-29T14:17:37;63.20;;;39.53;;
41255;SDS011;26989;45.524;10.938;2022-12-29T14:20:17;63.65;;;40.85;;
41255;SDS011;26989;45.524;10.938;2022-12-29T14:28:25;61.75;;;40.50;;
41255;SDS011;26989;45.524;10.938;2022-12-29T14:37:02;69.88;;;44.22;;
41255;SDS011;26989;45.524;10.938;2022-12-29T14:39:38;80.97;;;42.67;;
41255;SDS011;26989;45.524;10.938;2022-12-29T14:44:49;73.30;;;44.28;;
41255;SDS011;26989;45.524;10.938;2022-12-29T14:47:44;70.78;;;43.03;;
41255;SDS011;26989;45.524;10.938;2022-12-29T14:50:15;72.10;;;42.65;;
41255;SDS011;26989;45.524;10.938;2022-12-29T14:52:54;66.85;;;42.28;;
41255;SDS011;26989;45.524;10.938;2022-12-29T14:58:14;70.03;;;45.55;;
41255;SDS011;26989;45.524;10.938;2022-12-29T15:01:13;92.10;;;47.08;;
41255;SDS011;26989;45.524;10.938;2022-12-29T15:04:04;92.25;;;46.85;;
41255;SDS011;26989;45.524;10.938;2022-12-29T15:06:40;77.07;;;45.72;;
41255;SDS011;26989;45.524;10.938;2022-12-29T15:09:23;67.40;;;42.53;;
41255;SDS011;26989;45.524;10.938;2022-12-29T15:14:50;71.85;;;42.80;;
41255;SDS011;26989;45.524;10.938;2022-12-29T15:19:59;76.32;;;45.50;;
41255;SDS011;26989;45.524;10.938;2022-12-29T15:25:46;74.20;;;45.10;;
41255;SDS011;26989;45.524;10.938;2022-12-29T15:28:19;73.75;;;44.10;;
41255;SDS011;26989;45.524;10.938;2022-12-29T15:30:55;68.43;;;44.47;;
41255;SDS011;26989;45.524;10.938;2022-12-29T15:33:30;77.43;;;44.08;;
41255;SDS011;26989;45.524;10.938;2022-12-29T15:36:03;72.15;;;44.30;;
41255;SDS011;26989;45.524;10.938;2022-12-29T15:38:43;70.22;;;42.80;;
41255;SDS011;26989;45.524;10.938;2022-12-29T15:41:17;75.65;;;44.92;;
41255;SDS011;26989;45.524;10.938;2022-12-29T15:44:29;71.10;;;44.63;;
41255;SDS011;26989;45.524;10.938;2022-12-29T15:47:38;73.72;;;44.13;;
41255;SDS011;26989;45.524;10.938;2022-12-29T15:50:23;84.93;;;47.58;;
41255;SDS011;26989;45.524;10.938;2022-12-29T15:58:38;70.43;;;43.90;;
41255;SDS011;26989;45.524;10.938;2022-12-29T16:01:16;74.53;;;46.00;;
41255;SDS011;26989;45.524;10.938;2022-12-29T16:03:53;67.45;;;44.63;;
41255;SDS011;26989;45.524;10.938;2022-12-29T16:08:55;77.10;;;47.50;;
41255;SDS011;26989;45.524;10.938;2022-12-29T16:11:31;82.38;;;47.20;;
41255;SDS011;26989;45.524;10.938;2022-12-29T16:14:13;76.70;;;47.42;;
41255;SDS011;26989;45.524;10.938;2022-12-29T16:17:13;76.38;;;46.45;;
41255;SDS011;26989;45.524;10.938;2022-12-29T16:20:14;73.88;;;45.22;;
41255;SDS011;26989;45.524;10.938;2022-12-29T16:23:16;70.78;;;45.72;;
41255;SDS011;26989;45.524;10.938;2022-12-29T16:25:52;71.38;;;44.42;;
41255;SDS011;26989;45.524;10.938;2022-12-29T16:28:22;72.68;;;45.65;;
41255;SDS011;26989;45.524;10.938;2022-12-29T16:30:58;81.20;;;47.50;;
41255;SDS011;26989;45.524;10.938;2022-12-29T16:33:38;115.45;;;59.28;;
41255;SDS011;26989;45.524;10.938;2022-12-29T16:36:32;130.00;;;76.50;;
41255;SDS011;26989;45.524;10.938;2022-12-29T16:39:24;92.35;;;54.13;;
41255;SDS011;26989;45.524;10.938;2022-12-29T16:41:54;88.65;;;54.40;;
41255;SDS011;26989;45.524;10.938;2022-12-29T16:52:54;92.68;;;54.03;;
41255;SDS011;26989;45.524;10.938;2022-12-29T16:55:21;92.20;;;52.65;;
41255;SDS011;26989;45.524;10.938;2022-12-29T16:57:50;88.95;;;52.13;;
41255;SDS011;26989;45.524;10.938;2022-12-29T17:00:21;85.95;;;51.53;;
41255;SDS011;26989;45.524;10.938;2022-12-29T17:02:58;84.70;;;50.72;;
41255;SDS011;26989;45.524;10.938;2022-12-29T17:05:28;92.78;;;53.90;;
41255;SDS011;26989;45.524;10.938;2022-12-29T17:08:22;81.85;;;49.28;;
41255;SDS011;26989;45.524;10.938;2022-12-29T17:11:00;92.80;;;51.75;;
41255;SDS011;26989;45.524;10.938;2022-12-29T17:14:04;89.68;;;51.97;;
41255;SDS011;26989;45.524;10.938;2022-12-29T17:19:33;99.60;;;57.38;;
41255;SDS011;26989;45.524;10.938;2022-12-29T17:22:24;87.57;;;51.92;;
41255;SDS011;26989;45.524;10.938;2022-12-29T17:24:56;93.65;;;52.03;;
41255;SDS011;26989;45.524;10.938;2022-12-29T17:27:41;89.75;;;52.80;;
41255;SDS011;26989;45.524;10.938;2022-12-29T17:30:16;87.88;;;52.40;;
41255;SDS011;26989;45.524;10.938;2022-12-29T17:35:49;110.40;;;65.28;;
41255;SDS011;26989;45.524;10.938;2022-12-29T17:40:57;141.32;;;80.80;;
41255;SDS011;26989;45.524;10.938;2022-12-29T17:43:25;109.35;;;63.67;;
41255;SDS011;26989;45.524;10.938;2022-12-29T17:46:01;120.00;;;68.65;;
41255;SDS011;26989;45.524;10.938;2022-12-29T17:48:52;115.22;;;67.10;;
41255;SDS011;26989;45.524;10.938;2022-12-29T17:51:23;120.00;;;70.50;;
41255;SDS011;26989;45.524;10.938;2022-12-29T17:53:50;124.63;;;73.88;;
41255;SDS011;26989;45.524;10.938;2022-12-29T17:56:17;108.82;;;61.45;;
41255;SDS011;26989;45.524;10.938;2022-12-29T17:58:45;103.22;;;59.88;;
41255;SDS011;26989;45.524;10.938;2022-12-29T18:01:15;107.00;;;63.30;;
41255;SDS011;26989;45.524;10.938;2022-12-29T18:03:49;121.53;;;70.25;;